sensor_id;sensor_type;location;lat;lon;timestamp;pressure;altitude;pressure_sealevel;temperature;humidity
76586;BME280;65251;51.022;13.736;2023-06-26T00:00:09;99463.13;;;18.51;74.30
76586;BME280;65251;51.022;13.736;2023-06-26T00:00:41;99474.97;;;18.50;74.34
76586;BME280;65251;51.022;13.736;2023-06-26T00:01:12;99462.53;;;18.49;74.22
76586;BME280;65251;51.022;13.736;2023-06-26T00:01:43;99468.75;;;18.49;74.68
76586;BME280;65251;51.022;13.736;2023-06-26T00:02:14;99466.31;;;18.48;74.33
76586;BME280;65251;51.022;13.736;2023-06-26T00:02:45;99464.94;;;18.45;74.16
76586;BME280;65251;51.022;13.736;2023-06-26T00:03:16;99464.94;;;18.45;74.73
76586;BME280;65251;51.022;13.736;2023-06-26T00:03:48;99461.09;;;18.41;74.53
76586;BME280;65251;51.022;13.736;2023-06-26T00:04:18;99466.50;;;18.41;75.44
76586;BME280;65251;51.022;13.736;2023-06-26T00:04:49;99465.44;;;18.42;74.44
76586;BME280;65251;51.022;13.736;2023-06-26T00:05:24;99464.84;;;18.40;74.27
76586;BME280;65251;51.022;13.736;2023-06-26T00:05:56;99464.59;;;18.42;75.18
76586;BME280;65251;51.022;13.736;2023-06-26T00:06:30;99459.72;;;18.39;74.95
76586;BME280;65251;51.022;13.736;2023-06-26T00:07:02;99462.69;;;18.37;74.71
76586;BME280;65251;51.022;13.736;2023-06-26T00:07:33;99462.38;;;18.34;74.79
76586;BME280;65251;51.022;13.736;2023-06-26T00:08:05;99461.88;;;18.37;74.79
76586;BME280;65251;51.022;13.736;2023-06-26T00:08:37;99458.34;;;18.36;75.45
76586;BME280;65251;51.022;13.736;2023-06-26T00:09:07;99460.47;;;18.34;75.00
76586;BME280;65251;51.022;13.736;2023-06-26T00:09:38;99458.84;;;18.33;75.12
76586;BME280;65251;51.022;13.736;2023-06-26T00:10:10;99458.03;;;18.33;74.94
76586;BME280;65251;51.022;13.736;2023-06-26T00:10:40;99454.78;;;18.31;74.99
76586;BME280;65251;51.022;13.736;2023-06-26T00:11:11;99458.28;;;18.31;75.56
76586;BME280;65251;51.022;13.736;2023-06-26T00:11:43;99455.84;;;18.30;75.48
76586;BME280;65251;51.022;13.736;2023-06-26T00:12:13;99459.59;;;18.29;75.19
76586;BME280;65251;51.022;13.736;2023-06-26T00:12:44;99456.91;;;18.29;75.07
76586;BME280;65251;51.022;13.736;2023-06-26T00:13:16;99456.09;;;18.28;75.39
76586;BME280;65251;51.022;13.736;2023-06-26T00:13:47;99454.13;;;18.23;75.20
76586;BME280;65251;51.022;13.736;2023-06-26T00:14:18;99457.63;;;18.24;75.08
76586;BME280;65251;51.022;13.736;2023-06-26T00:14:51;99456.00;;;18.23;75.20
76586;BME280;65251;51.022;13.736;2023-06-26T00:15:22;99453.31;;;18.23;74.80
76586;BME280;65251;51.022;13.736;2023-06-26T00:15:54;99451.94;;;18.20;75.18
76586;BME280;65251;51.022;13.736;2023-06-26T00:16:25;99449.22;;;18.20;75.88
76586;BME280;65251;51.022;13.736;2023-06-26T00:16:55;99461.09;;;18.19;76.36
76586;BME280;65251;51.022;13.736;2023-06-26T00:17:27;99455.69;;;18.19;75.86
76586;BME280;65251;51.022;13.736;2023-06-26T00:17:58;99455.16;;;18.17;75.45
76586;BME280;65251;51.022;13.736;2023-06-26T00:18:29;99453.50;;;18.16;75.79
76586;BME280;65251;51.022;13.736;2023-06-26T00:19:00;99453.75;;;18.15;75.90
76586;BME280;65251;51.022;13.736;2023-06-26T00:19:31;99446.50;;;18.15;75.74
76586;BME280;65251;51.022;13.736;2023-06-26T00:20:04;99453.44;;;18.11;76.11
76586;BME280;65251;51.022;13.736;2023-06-26T00:20:37;99454.25;;;18.12;75.81
76586;BME280;65251;51.022;13.736;2023-06-26T00:21:09;99451.81;;;18.10;76.09
76586;BME280;65251;51.022;13.736;2023-06-26T00:21:40;99455.00;;;18.07;76.05
76586;BME280;65251;51.022;13.736;2023-06-26T00:22:11;99453.69;;;18.10;76.09
76586;BME280;65251;51.022;13.736;2023-06-26T00:22:42;99457.44;;;18.09;76.37
76586;BME280;65251;51.022;13.736;2023-06-26T00:23:13;99452.53;;;18.06;76.34
76586;BME280;65251;51.022;13.736;2023-06-26T00:23:47;99449.59;;;18.07;76.26
76586;BME280;65251;51.022;13.736;2023-06-26T00:24:18;99452.53;;;18.06;75.72
76586;BME280;65251;51.022;13.736;2023-06-26T00:24:49;99451.72;;;18.05;75.90
76586;BME280;65251;51.022;13.736;2023-06-26T00:25:21;99451.97;;;18.04;75.58
76586;BME280;65251;51.022;13.736;2023-06-26T00:25:52;99447.66;;;18.03;76.00
76586;BME280;65251;51.022;13.736;2023-06-26T00:26:22;99450.84;;;18.00;75.53
76586;BME280;65251;51.022;13.736;2023-06-26T00:26:55;99447.06;;;18.01;75.78
76586;BME280;65251;51.022;13.736;2023-06-26T00:27:25;99441.69;;;18.01;75.36
76586;BME280;65251;51.022;13.736;2023-06-26T00:27:56;99445.19;;;18.01;75.52
76586;BME280;65251;51.022;13.736;2023-06-26T00:28:28;99451.66;;;18.00;75.67
76586;BME280;65251;51.022;13.736;2023-06-26T00:28:59;99447.91;;;18.01;75.08
76586;BME280;65251;51.022;13.736;2023-06-26T00:29:29;99441.69;;;18.01;75.27
76586;BME280;65251;51.022;13.736;2023-06-26T00:30:01;99445.19;;;18.01;74.87
76586;BME280;65251;51.022;13.736;2023-06-26T00:30:32;99439.22;;;17.99;75.58
76586;BME280;65251;51.022;13.736;2023-06-26T00:31:03;99443.81;;;17.99;75.55
76586;BME280;65251;51.022;13.736;2023-06-26T00:31:34;99442.22;;;17.98;76.01
76586;BME280;65251;51.022;13.736;2023-06-26T00:32:06;99442.22;;;17.98;75.84
76586;BME280;65251;51.022;13.736;2023-06-26T00:32:36;99447.03;;;17.96;76.04
76586;BME280;65251;51.022;13.736;2023-06-26T00:33:08;99439.75;;;17.96;75.54
76586;BME280;65251;51.022;13.736;2023-06-26T00:33:39;99445.97;;;17.97;75.82
76586;BME280;65251;51.022;13.736;2023-06-26T00:34:10;99444.34;;;17.96;75.66
76586;BME280;65251;51.022;13.736;2023-06-26T00:34:41;99443.28;;;17.97;75.80
76586;BME280;65251;51.022;13.736;2023-06-26T00:35:12;99442.69;;;17.95;75.92
76586;BME280;65251;51.022;13.736;2023-06-26T00:35:43;99445.97;;;17.97;75.42
76586;BME280;65251;51.022;13.736;2023-06-26T00:36:16;99429.47;;;17.93;75.67
76586;BME280;65251;51.022;13.736;2023-06-26T00:36:46;99441.06;;;17.94;75.34
76586;BME280;65251;51.022;13.736;2023-06-26T00:37:17;99442.13;;;17.93;75.17
76586;BME280;65251;51.022;13.736;2023-06-26T00:37:49;99444.81;;;17.93;76.26
76586;BME280;65251;51.022;13.736;2023-06-26T00:38:19;99436.97;;;17.91;76.53
76586;BME280;65251;51.022;13.736;2023-06-26T00:38:51;99439.69;;;17.91;75.17
76586;BME280;65251;51.022;13.736;2023-06-26T00:39:23;99441.81;;;17.89;76.29
76586;BME280;65251;51.022;13.736;2023-06-26T00:39:56;99432.09;;;17.88;76.25
76586;BME280;65251;51.022;13.736;2023-06-26T00:40:26;99439.09;;;17.89;75.88
76586;BME280;65251;51.022;13.736;2023-06-26T00:40:58;99446.13;;;17.90;75.83
76586;BME280;65251;51.022;13.736;2023-06-26T00:41:29;99440.75;;;17.90;75.74
76586;BME280;65251;51.022;13.736;2023-06-26T00:42:00;99438.28;;;17.88;76.06
76586;BME280;65251;51.022;13.736;2023-06-26T00:42:31;99445.56;;;17.88;76.18
76586;BME280;65251;51.022;13.736;2023-06-26T00:43:02;99442.88;;;17.88;76.22
76586;BME280;65251;51.022;13.736;2023-06-26T00:43:33;99434.22;;;17.86;75.35
76586;BME280;65251;51.022;13.736;2023-06-26T00:44:05;99442.28;;;17.86;76.40
76586;BME280;65251;51.022;13.736;2023-06-26T00:44:36;99437.72;;;17.86;76.19
76586;BME280;65251;51.022;13.736;2023-06-26T00:45:07;99438.53;;;17.87;75.22
76586;BME280;65251;51.022;13.736;2023-06-26T00:45:39;99438.78;;;17.85;75.22
76586;BME280;65251;51.022;13.736;2023-06-26T00:46:12;99440.41;;;17.86;75.76
76586;BME280;65251;51.022;13.736;2023-06-26T00:46:42;99434.22;;;17.86;76.18
76586;BME280;65251;51.022;13.736;2023-06-26T00:47:15;99441.22;;;17.87;75.48
76586;BME280;65251;51.022;13.736;2023-06-26T00:47:48;99443.94;;;17.87;74.99
76586;BME280;65251;51.022;13.736;2023-06-26T00:48:19;99437.97;;;17.85;74.74
76586;BME280;65251;51.022;13.736;2023-06-26T00:48:52;99439.84;;;17.84;76.35
76586;BME280;65251;51.022;13.736;2023-06-26T00:49:26;99434.44;;;17.84;76.23
76586;BME280;65251;51.022;13.736;2023-06-26T00:49:57;99439.28;;;17.82;74.98
76586;BME280;65251;51.022;13.736;2023-06-26T00:50:28;99426.38;;;17.84;75.79
76586;BME280;65251;51.022;13.736;2023-06-26T00:51:00;99438.22;;;17.83;76.00
76586;BME280;65251;51.022;13.736;2023-06-26T00:51:32;99433.63;;;17.84;75.29
76586;BME280;65251;51.022;13.736;2023-06-26T00:52:04;99449.00;;;17.83;75.58
76586;BME280;65251;51.022;13.736;2023-06-26T00:52:36;99428.72;;;17.81;76.17
76586;BME280;65251;51.022;13.736;2023-06-26T00:53:09;99429.56;;;17.81;75.49
76586;BME280;65251;51.022;13.736;2023-06-26T00:53:41;99433.31;;;17.80;75.38
76586;BME280;65251;51.022;13.736;2023-06-26T00:54:13;99439.50;;;17.81;76.39
76586;BME280;65251;51.022;13.736;2023-06-26T00:54:50;99430.31;;;17.77;76.09
76586;BME280;65251;51.022;13.736;2023-06-26T00:55:21;99437.88;;;17.80;76.40
76586;BME280;65251;51.022;13.736;2023-06-26T00:55:54;99429.25;;;17.78;75.03
76586;BME280;65251;51.022;13.736;2023-06-26T00:56:24;99431.94;;;17.78;76.36
76586;BME280;65251;51.022;13.736;2023-06-26T00:56:55;99438.94;;;17.79;76.17
76586;BME280;65251;51.022;13.736;2023-06-26T00:57:27;99439.75;;;17.79;75.26
76586;BME280;65251;51.022;13.736;2023-06-26T00:57:58;99424.41;;;17.80;76.28
76586;BME280;65251;51.022;13.736;2023-06-26T00:58:29;99427.38;;;17.78;75.64
76586;BME280;65251;51.022;13.736;2023-06-26T00:59:00;99431.94;;;17.78;75.34
76586;BME280;65251;51.022;13.736;2023-06-26T00:59:31;99432.19;;;17.76;75.76
76586;BME280;65251;51.022;13.736;2023-06-26T01:00:03;99439.47;;;17.76;75.46
76586;BME280;65251;51.022;13.736;2023-06-26T01:00:36;99439.47;;;17.76;76.49
76586;BME280;65251;51.022;13.736;2023-06-26T01:01:06;99432.69;;;17.73;75.75
76586;BME280;65251;51.022;13.736;2023-06-26T01:01:39;99433.00;;;17.77;76.38
76586;BME280;65251;51.022;13.736;2023-06-26T01:02:10;99437.00;;;17.74;76.31
76586;BME280;65251;51.022;13.736;2023-06-26T01:02:41;99433.75;;;17.72;76.16
76586;BME280;65251;51.022;13.736;2023-06-26T01:03:12;99439.13;;;17.72;76.71
76586;BME280;65251;51.022;13.736;2023-06-26T01:03:43;99434.56;;;17.73;76.16
76586;BME280;65251;51.022;13.736;2023-06-26T01:04:16;99442.91;;;17.71;75.88
76586;BME280;65251;51.022;13.736;2023-06-26T01:04:48;99431.53;;;17.69;75.66
76586;BME280;65251;51.022;13.736;2023-06-26T01:05:20;99438.81;;;17.69;76.46
76586;BME280;65251;51.022;13.736;2023-06-26T01:05:53;99440.44;;;17.70;75.85
76586;BME280;65251;51.022;13.736;2023-06-26T01:06:28;99437.75;;;17.70;76.82
76586;BME280;65251;51.022;13.736;2023-06-26T01:07:04;99443.97;;;17.70;76.06
76586;BME280;65251;51.022;13.736;2023-06-26T01:07:38;99440.69;;;17.68;75.92
76586;BME280;65251;51.022;13.736;2023-06-26T01:08:11;99436.59;;;17.66;76.39
76586;BME280;65251;51.022;13.736;2023-06-26T01:08:42;99442.56;;;17.68;75.98
76586;BME280;65251;51.022;13.736;2023-06-26T01:09:16;99432.59;;;17.68;76.73
76586;BME280;65251;51.022;13.736;2023-06-26T01:09:48;99432.03;;;17.66;76.82
76586;BME280;65251;51.022;13.736;2023-06-26T01:10:19;99433.66;;;17.67;77.08
76586;BME280;65251;51.022;13.736;2023-06-26T01:10:51;99436.59;;;17.66;77.02
76586;BME280;65251;51.022;13.736;2023-06-26T01:11:22;99429.59;;;17.65;77.15
76586;BME280;65251;51.022;13.736;2023-06-26T01:11:53;99433.09;;;17.65;75.90
76586;BME280;65251;51.022;13.736;2023-06-26T01:12:25;99436.34;;;17.67;77.03
76586;BME280;65251;51.022;13.736;2023-06-26T01:12:57;99432.03;;;17.66;76.72
76586;BME280;65251;51.022;13.736;2023-06-26T01:13:29;99432.84;;;17.67;76.17
76586;BME280;65251;51.022;13.736;2023-06-26T01:14:01;99424.75;;;17.67;76.44
76586;BME280;65251;51.022;13.736;2023-06-26T01:14:34;99436.59;;;17.66;77.20
76586;BME280;65251;51.022;13.736;2023-06-26T01:15:06;99428.53;;;17.66;76.82
76586;BME280;65251;51.022;13.736;2023-06-26T01:15:37;99427.91;;;17.64;76.86
76586;BME280;65251;51.022;13.736;2023-06-26T01:16:10;99428.97;;;17.63;76.56
76586;BME280;65251;51.022;13.736;2023-06-26T01:16:43;99424.41;;;17.63;77.01
76586;BME280;65251;51.022;13.736;2023-06-26T01:17:17;99422.78;;;17.62;76.55
76586;BME280;65251;51.022;13.736;2023-06-26T01:17:50;99428.97;;;17.63;76.46
76586;BME280;65251;51.022;13.736;2023-06-26T01:18:23;99420.56;;;17.59;76.28
76586;BME280;65251;51.022;13.736;2023-06-26T01:18:54;99423.25;;;17.59;76.28
76586;BME280;65251;51.022;13.736;2023-06-26T01:19:29;99424.06;;;17.60;76.31
76586;BME280;65251;51.022;13.736;2023-06-26T01:20:03;99425.41;;;17.57;76.06
76586;BME280;65251;51.022;13.736;2023-06-26T01:20:37;99420.03;;;17.57;76.15
76586;BME280;65251;51.022;13.736;2023-06-26T01:21:13;99424.59;;;17.56;76.93
76586;BME280;65251;51.022;13.736;2023-06-26T01:21:48;99425.94;;;17.59;76.73
76586;BME280;65251;51.022;13.736;2023-06-26T01:22:36;99423.53;;;17.58;76.83
76586;BME280;65251;51.022;13.736;2023-06-26T01:23:20;99424.59;;;17.56;75.86
76586;BME280;65251;51.022;13.736;2023-06-26T01:24:02;99428.09;;;17.57;75.77
76586;BME280;65251;51.022;13.736;2023-06-26T01:24:41;99418.38;;;17.56;75.54
76586;BME280;65251;51.022;13.736;2023-06-26T01:25:20;99422.97;;;17.55;76.07
76586;BME280;65251;51.022;13.736;2023-06-26T01:26:10;99426.47;;;17.56;76.08
76586;BME280;65251;51.022;13.736;2023-06-26T01:26:44;99419.44;;;17.55;75.75
76586;BME280;65251;51.022;13.736;2023-06-26T01:27:18;99424.84;;;17.55;75.84
76586;BME280;65251;51.022;13.736;2023-06-26T01:27:53;99417.81;;;17.54;76.24
76586;BME280;65251;51.022;13.736;2023-06-26T01:28:27;99421.56;;;17.53;77.27
76586;BME280;65251;51.022;13.736;2023-06-26T01:29:00;99418.88;;;17.53;76.32
76586;BME280;65251;51.022;13.736;2023-06-26T01:29:33;99421.56;;;17.53;76.23
76586;BME280;65251;51.022;13.736;2023-06-26T01:30:07;99418.31;;;17.51;75.99
76586;BME280;65251;51.022;13.736;2023-06-26T01:30:42;99421.25;;;17.49;76.53
76586;BME280;65251;51.022;13.736;2023-06-26T01:31:15;99424.50;;;17.51;76.18
76586;BME280;65251;51.022;13.736;2023-06-26T01:31:48;99423.44;;;17.52;77.49
76586;BME280;65251;51.022;13.736;2023-06-26T01:32:20;99424.75;;;17.50;76.72
76586;BME280;65251;51.022;13.736;2023-06-26T01:32:51;99418.31;;;17.51;77.55
76586;BME280;65251;51.022;13.736;2023-06-26T01:33:22;99421.56;;;17.53;76.56
76586;BME280;65251;51.022;13.736;2023-06-26T01:33:56;99417.50;;;17.50;76.49
76586;BME280;65251;51.022;13.736;2023-06-26T01:34:29;99420.44;;;17.49;76.40
76586;BME280;65251;51.022;13.736;2023-06-26T01:35:02;99422.88;;;17.50;76.97
76586;BME280;65251;51.022;13.736;2023-06-26T01:35:34;99419.59;;;17.48;77.25
76586;BME280;65251;51.022;13.736;2023-06-26T01:36:06;99417.97;;;17.47;76.81
76586;BME280;65251;51.022;13.736;2023-06-26T01:36:38;99417.72;;;17.49;76.60
76586;BME280;65251;51.022;13.736;2023-06-26T01:37:09;99413.66;;;17.46;76.32
76586;BME280;65251;51.022;13.736;2023-06-26T01:37:40;99422.06;;;17.50;77.14
76586;BME280;65251;51.022;13.736;2023-06-26T01:38:13;99413.16;;;17.49;75.69
76586;BME280;65251;51.022;13.736;2023-06-26T01:38:44;99413.97;;;17.50;75.49
76586;BME280;65251;51.022;13.736;2023-06-26T01:39:18;99412.09;;;17.50;76.96
76586;BME280;65251;51.022;13.736;2023-06-26T01:39:49;99422.06;;;17.50;75.92
76586;BME280;65251;51.022;13.736;2023-06-26T01:40:20;99413.97;;;17.50;76.42
76586;BME280;65251;51.022;13.736;2023-06-26T01:40:52;99407.78;;;17.49;75.82
76586;BME280;65251;51.022;13.736;2023-06-26T01:41:25;99407.78;;;17.49;76.78
76586;BME280;65251;51.022;13.736;2023-06-26T01:41:56;99417.16;;;17.47;75.71
76586;BME280;65251;51.022;13.736;2023-06-26T01:42:28;99410.47;;;17.49;76.10
76586;BME280;65251;51.022;13.736;2023-06-26T01:42:59;99413.41;;;17.48;76.00
76586;BME280;65251;51.022;13.736;2023-06-26T01:43:39;99411.53;;;17.48;75.89
76586;BME280;65251;51.022;13.736;2023-06-26T01:44:22;99408.25;;;17.46;75.84
76586;BME280;65251;51.022;13.736;2023-06-26T01:44:55;99408.25;;;17.46;76.09
76586;BME280;65251;51.022;13.736;2023-06-26T01:45:32;99405.81;;;17.45;76.99
76586;BME280;65251;51.022;13.736;2023-06-26T01:46:06;99413.88;;;17.45;76.02
76586;BME280;65251;51.022;13.736;2023-06-26T01:46:42;99414.94;;;17.44;77.22
76586;BME280;65251;51.022;13.736;2023-06-26T01:47:22;99410.63;;;17.43;76.29
76586;BME280;65251;51.022;13.736;2023-06-26T01:48:01;99406.06;;;17.43;77.40
76586;BME280;65251;51.022;13.736;2023-06-26T01:48:38;99403.84;;;17.40;77.52
76586;BME280;65251;51.022;13.736;2023-06-26T01:49:16;99399.22;;;17.36;76.62
76586;BME280;65251;51.022;13.736;2023-06-26T01:49:57;99405.47;;;17.41;77.24
76586;BME280;65251;51.022;13.736;2023-06-26T01:50:33;99405.47;;;17.41;76.48
76586;BME280;65251;51.022;13.736;2023-06-26T01:51:08;99399.53;;;17.39;77.01
76586;BME280;65251;51.022;13.736;2023-06-26T01:51:46;99401.41;;;17.39;76.77
76586;BME280;65251;51.022;13.736;2023-06-26T01:52:20;99401.41;;;17.39;76.70
76586;BME280;65251;51.022;13.736;2023-06-26T01:53:01;99402.47;;;17.38;77.50
76586;BME280;65251;51.022;13.736;2023-06-26T01:53:38;99397.59;;;17.35;78.10
76586;BME280;65251;51.022;13.736;2023-06-26T01:54:17;99394.88;;;17.35;76.55
76586;BME280;65251;51.022;13.736;2023-06-26T01:54:55;99395.13;;;17.33;76.96
76586;BME280;65251;51.022;13.736;2023-06-26T01:55:32;99393.75;;;17.31;78.56
76586;BME280;65251;51.022;13.736;2023-06-26T01:56:10;99392.13;;;17.30;78.19
76586;BME280;65251;51.022;13.736;2023-06-26T01:56:47;99395.63;;;17.30;78.21
76586;BME280;65251;51.022;13.736;2023-06-26T01:57:20;99400.19;;;17.30;78.06
76586;BME280;65251;51.022;13.736;2023-06-26T01:57:56;99390.97;;;17.26;77.44
76586;BME280;65251;51.022;13.736;2023-06-26T01:58:29;99395.28;;;17.27;77.94
76586;BME280;65251;51.022;13.736;2023-06-26T01:59:03;99393.41;;;17.27;78.59
76586;BME280;65251;51.022;13.736;2023-06-26T01:59:39;99390.97;;;17.26;77.47
76586;BME280;65251;51.022;13.736;2023-06-26T02:00:13;99395.53;;;17.25;77.52
76586;BME280;65251;51.022;13.736;2023-06-26T02:00:45;99390.38;;;17.23;78.94
76586;BME280;65251;51.022;13.736;2023-06-26T02:01:17;99389.00;;;17.21;77.29
76586;BME280;65251;51.022;13.736;2023-06-26T02:01:47;99386.31;;;17.21;78.11
76586;BME280;65251;51.022;13.736;2023-06-26T02:02:18;99387.94;;;17.22;78.88
76586;BME280;65251;51.022;13.736;2023-06-26T02:02:50;99386.06;;;17.22;78.70
76586;BME280;65251;51.022;13.736;2023-06-26T02:03:21;99385.50;;;17.20;78.65
76586;BME280;65251;51.022;13.736;2023-06-26T02:03:54;99388.19;;;17.20;78.14
76586;BME280;65251;51.022;13.736;2023-06-26T02:04:26;99388.69;;;17.17;78.60
76586;BME280;65251;51.022;13.736;2023-06-26T02:04:57;99390.56;;;17.17;77.75
76586;BME280;65251;51.022;13.736;2023-06-26T02:05:27;99386.25;;;17.16;78.51
76586;BME280;65251;51.022;13.736;2023-06-26T02:06:01;99389.75;;;17.16;78.79
76586;BME280;65251;51.022;13.736;2023-06-26T02:06:31;99387.06;;;17.16;78.61
76586;BME280;65251;51.022;13.736;2023-06-26T02:07:02;99391.06;;;17.14;78.63
76586;BME280;65251;51.022;13.736;2023-06-26T02:07:33;99385.91;;;17.12;78.99
76586;BME280;65251;51.022;13.736;2023-06-26T02:08:05;99383.22;;;17.12;79.25
76586;BME280;65251;51.022;13.736;2023-06-26T02:08:36;99389.66;;;17.11;79.29
76586;BME280;65251;51.022;13.736;2023-06-26T02:09:07;99385.59;;;17.09;78.30
76586;BME280;65251;51.022;13.736;2023-06-26T02:09:39;99392.34;;;17.11;79.37
76586;BME280;65251;51.022;13.736;2023-06-26T02:10:10;99391.53;;;17.11;78.06
76586;BME280;65251;51.022;13.736;2023-06-26T02:10:41;99382.06;;;17.08;78.07
76586;BME280;65251;51.022;13.736;2023-06-26T02:11:12;99392.59;;;17.10;78.79
76586;BME280;65251;51.022;13.736;2023-06-26T02:11:45;99393.66;;;17.09;78.35
76586;BME280;65251;51.022;13.736;2023-06-26T02:12:15;99385.00;;;17.07;78.29
76586;BME280;65251;51.022;13.736;2023-06-26T02:12:47;99387.94;;;17.05;79.35
76586;BME280;65251;51.022;13.736;2023-06-26T02:13:18;99390.63;;;17.05;78.49
76586;BME280;65251;51.022;13.736;2023-06-26T02:13:48;99389.56;;;17.06;79.10
76586;BME280;65251;51.022;13.736;2023-06-26T02:14:20;99396.59;;;17.07;78.76
76586;BME280;65251;51.022;13.736;2023-06-26T02:14:51;99387.94;;;17.05;79.22
76586;BME280;65251;51.022;13.736;2023-06-26T02:15:22;99391.44;;;17.06;77.96
76586;BME280;65251;51.022;13.736;2023-06-26T02:15:53;99390.38;;;17.07;79.17
76586;BME280;65251;51.022;13.736;2023-06-26T02:16:24;99389.56;;;17.06;78.41
76586;BME280;65251;51.022;13.736;2023-06-26T02:16:55;99390.63;;;17.05;78.68
76586;BME280;65251;51.022;13.736;2023-06-26T02:17:26;99391.94;;;17.03;79.44
76586;BME280;65251;51.022;13.736;2023-06-26T02:17:57;99388.41;;;17.02;78.93
76586;BME280;65251;51.022;13.736;2023-06-26T02:18:28;99392.75;;;17.03;79.08
76586;BME280;65251;51.022;13.736;2023-06-26T02:19:00;99386.53;;;17.03;79.15
76586;BME280;65251;51.022;13.736;2023-06-26T02:19:30;99390.28;;;17.02;79.90
76586;BME280;65251;51.022;13.736;2023-06-26T02:20:01;99390.28;;;17.02;79.51
76586;BME280;65251;51.022;13.736;2023-06-26T02:20:33;99388.41;;;17.02;78.53
76586;BME280;65251;51.022;13.736;2023-06-26T02:21:04;99388.91;;;16.99;79.38
76586;BME280;65251;51.022;13.736;2023-06-26T02:21:35;99392.41;;;17.00;78.56
76586;BME280;65251;51.022;13.736;2023-06-26T02:22:06;99387.03;;;17.00;79.30
76586;BME280;65251;51.022;13.736;2023-06-26T02:22:37;99396.97;;;16.99;78.46
76586;BME280;65251;51.022;13.736;2023-06-26T02:23:08;99391.28;;;16.96;78.17
76586;BME280;65251;51.022;13.736;2023-06-26T02:23:40;99393.97;;;16.96;78.08
76586;BME280;65251;51.022;13.736;2023-06-26T02:24:10;99394.81;;;16.96;78.15
76586;BME280;65251;51.022;13.736;2023-06-26T02:24:41;99394.47;;;16.93;78.60
76586;BME280;65251;51.022;13.736;2023-06-26T02:25:12;99391.53;;;16.94;80.12
76586;BME280;65251;51.022;13.736;2023-06-26T02:25:44;99392.59;;;16.93;78.52
76586;BME280;65251;51.022;13.736;2023-06-26T02:26:14;99390.13;;;16.92;79.98
76586;BME280;65251;51.022;13.736;2023-06-26T02:26:46;99390.13;;;16.92;79.37
76586;BME280;65251;51.022;13.736;2023-06-26T02:27:19;99389.31;;;16.91;80.21
76586;BME280;65251;51.022;13.736;2023-06-26T02:27:51;99387.44;;;16.92;79.76
76586;BME280;65251;51.022;13.736;2023-06-26T02:28:21;99382.31;;;16.90;79.99
76586;BME280;65251;51.022;13.736;2023-06-26T02:28:52;99390.84;;;16.87;79.87
76586;BME280;65251;51.022;13.736;2023-06-26T02:29:24;99385.47;;;16.87;78.92
76586;BME280;65251;51.022;13.736;2023-06-26T02:29:55;99387.34;;;16.86;78.71
76586;BME280;65251;51.022;13.736;2023-06-26T02:30:25;99391.69;;;16.87;79.46
76586;BME280;65251;51.022;13.736;2023-06-26T02:30:57;99382.78;;;16.87;79.49
76586;BME280;65251;51.022;13.736;2023-06-26T02:31:28;99387.59;;;16.85;78.85
76586;BME280;65251;51.022;13.736;2023-06-26T02:31:58;99387.34;;;16.86;79.11
76586;BME280;65251;51.022;13.736;2023-06-26T02:32:30;99383.03;;;16.85;80.45
76586;BME280;65251;51.022;13.736;2023-06-26T02:33:01;99379.53;;;16.85;78.64
76586;BME280;65251;51.022;13.736;2023-06-26T02:33:32;99387.84;;;16.83;80.49
76586;BME280;65251;51.022;13.736;2023-06-26T02:34:04;99387.00;;;16.83;78.71
76586;BME280;65251;51.022;13.736;2023-06-26T02:34:35;99385.72;;;16.85;80.16
76586;BME280;65251;51.022;13.736;2023-06-26T02:35:07;99387.59;;;16.85;80.58
76586;BME280;65251;51.022;13.736;2023-06-26T02:35:38;99388.06;;;16.82;78.82
76586;BME280;65251;51.022;13.736;2023-06-26T02:36:09;99386.44;;;16.81;79.48
76586;BME280;65251;51.022;13.736;2023-06-26T02:36:40;99380.81;;;16.82;79.14
76586;BME280;65251;51.022;13.736;2023-06-26T02:37:12;99375.09;;;16.79;80.18
76586;BME280;65251;51.022;13.736;2023-06-26T02:37:43;99387.00;;;16.83;80.32
76586;BME280;65251;51.022;13.736;2023-06-26T02:38:13;99380.00;;;16.82;79.09
76586;BME280;65251;51.022;13.736;2023-06-26T02:38:44;99383.25;;;16.84;80.64
76586;BME280;65251;51.022;13.736;2023-06-26T02:39:16;99379.19;;;16.81;80.36
76586;BME280;65251;51.022;13.736;2023-06-26T02:39:47;99391.25;;;16.79;80.28
76586;BME280;65251;51.022;13.736;2023-06-26T02:40:17;99373.22;;;16.79;80.51
76586;BME280;65251;51.022;13.736;2023-06-26T02:40:49;99390.19;;;16.80;79.25
76586;BME280;65251;51.022;13.736;2023-06-26T02:41:20;99381.06;;;16.81;78.75
76586;BME280;65251;51.022;13.736;2023-06-26T02:41:52;99381.06;;;16.81;80.31
76586;BME280;65251;51.022;13.736;2023-06-26T02:42:24;99383.97;;;16.79;79.28
76586;BME280;65251;51.022;13.736;2023-06-26T02:42:54;99377.06;;;16.83;80.60
76586;BME280;65251;51.022;13.736;2023-06-26T02:43:25;99380.56;;;16.84;80.22
76586;BME280;65251;51.022;13.736;2023-06-26T02:43:57;99374.63;;;16.82;78.63
76586;BME280;65251;51.022;13.736;2023-06-26T02:44:27;99377.88;;;16.84;79.06
76586;BME280;65251;51.022;13.736;2023-06-26T02:44:58;99380.81;;;16.82;79.07
76586;BME280;65251;51.022;13.736;2023-06-26T02:45:30;99380.22;;;16.80;80.64
76586;BME280;65251;51.022;13.736;2023-06-26T02:46:00;99380.00;;;16.82;79.78
76586;BME280;65251;51.022;13.736;2023-06-26T02:46:31;99375.66;;;16.81;79.67
76586;BME280;65251;51.022;13.736;2023-06-26T02:47:02;99371.91;;;16.82;79.97
76586;BME280;65251;51.022;13.736;2023-06-26T02:47:34;99374.84;;;16.80;79.38
76586;BME280;65251;51.022;13.736;2023-06-26T02:48:05;99373.78;;;16.81;79.93
76586;BME280;65251;51.022;13.736;2023-06-26T02:48:35;99370.53;;;16.79;79.40
76586;BME280;65251;51.022;13.736;2023-06-26T02:49:07;99375.66;;;16.81;80.70